Time;durP1;ratioP1;P1;durP2;ratioP2;P2;SDS_P1;SDS_P2;PMS_P1;PMS_P2;Temp;Humidity;BMP_temperature;BMP_pressure;BME280_temperature;BME280_humidity;BME280_pressure;Samples;Min_cycle;Max_cycle;Signal;HPM_P1;HPM_P2
2023/05/15 00:00:59;;;;;;;7.50;6.80;;;;;;;11.81;84.45;100595.53;4936286;29;20047;-82
2023/05/15 00:03:28;;;;;;;6.43;5.90;;;;;;;11.74;84.49;100581.59;4950328;29;20054;-83
2023/05/15 00:05:57;;;;;;;6.07;5.47;;;;;;;11.70;84.68;100579.94;4951039;29;20043;-82
2023/05/15 00:08:25;;;;;;;7.03;6.32;;;;;;;11.69;85.21;100590.44;4944874;29;20047;-82
2023/05/15 00:10:51;;;;;;;8.40;7.50;;;;;;;11.66;86.18;100580.88;4948529;29;20051;-82
2023/05/15 00:13:19;;;;;;;6.93;6.32;;;;;;;11.64;85.95;100582.66;4941514;29;20043;-87
2023/05/15 00:15:45;;;;;;;7.07;6.38;;;;;;;11.59;85.83;100572.22;4946841;29;20054;-82
2023/05/15 00:18:12;;;;;;;7.68;6.70;;;;;;;11.57;86.24;100574.00;4949984;28;20053;-82
2023/05/15 00:20:39;;;;;;;6.85;6.35;;;;;;;11.53;86.61;100572.31;4937321;29;20047;-82
2023/05/15 00:23:09;;;;;;;7.45;6.30;;;;;;;11.53;86.45;100567.06;4946611;29;20147;-81
2023/05/15 00:25:36;;;;;;;8.30;7.35;;;;;;;11.52;87.50;100569.72;4944077;29;20064;-81
2023/05/15 00:28:02;;;;;;;9.13;8.27;;;;;;;11.49;87.76;100568.00;4945995;29;20176;-82
2023/05/15 00:30:29;;;;;;;8.77;7.07;;;;;;;11.47;87.77;100567.19;4949211;29;20070;-82
2023/05/15 00:32:55;;;;;;;7.38;6.60;;;;;;;11.47;87.57;100569.78;4933359;29;20051;-82
2023/05/15 00:35:27;;;;;;;8.15;7.22;;;;;;;11.46;87.90;100561.94;4948926;29;20134;-83
2023/05/15 00:37:53;;;;;;;7.63;6.93;;;;;;;11.46;88.53;100570.69;4949509;28;20043;-85
2023/05/15 00:40:25;;;;;;;9.05;8.15;;;;;;;11.45;89.06;100563.69;4934741;29;20050;-84
2023/05/15 00:42:52;;;;;;;9.32;7.10;;;;;;;11.42;88.50;100563.75;4950763;28;20055;-83
2023/05/15 00:45:20;;;;;;;8.77;7.88;;;;;;;11.38;89.02;100560.31;4952533;29;20059;-87
2023/05/15 00:47:47;;;;;;;7.22;6.63;;;;;;;11.33;89.11;100559.50;4949016;29;20058;-83
2023/05/15 00:50:14;;;;;;;7.50;6.80;;;;;;;11.30;89.51;100558.66;4952852;29;20039;-84
2023/05/15 00:52:41;;;;;;;7.28;6.68;;;;;;;11.28;89.48;100561.31;4931290;29;20059;-82
2023/05/15 00:55:08;;;;;;;8.25;7.45;;;;;;;11.25;89.84;100556.97;4934340;29;20229;-82
2023/05/15 00:57:35;;;;;;;10.15;7.78;;;;;;;11.24;89.85;100562.25;4944288;28;20137;-84
2023/05/15 01:00:05;;;;;;;8.52;7.55;;;;;;;11.19;91.50;100549.19;4948896;29;20039;-83
2023/05/15 01:02:32;;;;;;;8.15;6.95;;;;;;;11.16;91.49;100557.09;4946179;29;20054;-82
2023/05/15 01:04:58;;;;;;;10.30;7.13;;;;;;;11.13;91.45;100556.25;4951767;29;20448;-83
2023/05/15 01:07:33;;;;;;;8.07;6.88;;;;;;;11.10;91.18;100544.06;4953199;28;20390;-86
2023/05/15 01:10:03;;;;;;;8.98;7.93;;;;;;;11.10;91.43;100544.06;4932343;29;20050;-81
2023/05/15 01:12:31;;;;;;;7.88;6.75;;;;;;;11.08;91.48;100549.34;4942637;29;20058;-82
2023/05/15 01:14:58;;;;;;;8.75;7.40;;;;;;;11.14;91.03;100551.00;4943179;28;20044;-81
2023/05/15 01:17:28;;;;;;;8.70;7.72;;;;;;;11.14;90.87;100537.03;4961144;28;20055;-84
2023/05/15 01:19:58;;;;;;;9.63;7.40;;;;;;;11.13;90.84;100544.03;4950235;29;20070;-81
2023/05/15 01:23:00;;;;;;;10.68;7.75;;;;;;;11.16;90.77;100538.75;4949959;29;20483;-82
2023/05/15 01:26:17;;;;;;;7.47;6.72;;;;;;;11.16;91.19;100536.13;4950093;29;20039;-82
2023/05/15 01:29:09;;;;;;;12.63;7.30;;;;;;;11.13;90.97;100533.53;4950616;29;20042;-84
2023/05/15 01:31:38;;;;;;;8.70;7.90;;;;;;;11.13;90.64;100536.16;4951318;29;20053;-81
2023/05/15 01:34:10;;;;;;;8.45;7.65;;;;;;;11.15;90.82;100526.53;4952804;28;20054;-81
2023/05/15 01:36:49;;;;;;;8.55;7.75;;;;;;;11.11;91.77;100532.72;4949982;29;20054;-82
2023/05/15 01:39:21;;;;;;;9.55;7.60;;;;;;;11.09;90.84;100530.13;4951108;29;20047;-81
2023/05/15 01:42:05;;;;;;;9.37;8.47;;;;;;;11.06;91.15;100524.03;4945263;28;20071;-83
2023/05/15 01:44:36;;;;;;;8.15;7.43;;;;;;;11.03;91.42;100529.31;4948669;29;20122;-85
2023/05/15 01:47:14;;;;;;;8.90;7.07;;;;;;;11.03;91.05;100521.44;4950321;29;20071;-82
2023/05/15 01:49:45;;;;;;;6.88;6.22;;;;;;;10.99;91.24;100525.88;4945704;28;20134;-84
2023/05/15 01:52:24;;;;;;;11.02;7.95;;;;;;;10.99;91.52;100523.25;4950638;28;20180;-82
2023/05/15 01:54:54;;;;;;;8.75;7.90;;;;;;;10.95;91.08;100526.81;4950221;29;20043;-83
2023/05/15 01:57:22;;;;;;;12.65;8.50;;;;;;;10.95;91.09;100521.56;4946731;29;20067;-82
2023/05/15 01:59:50;;;;;;;8.63;7.53;;;;;;;10.95;90.97;100529.44;4941493;29;20114;-83
2023/05/15 02:02:17;;;;;;;8.68;7.88;;;;;;;10.93;91.62;100528.56;4941068;29;20054;-83
2023/05/15 02:04:45;;;;;;;6.80;6.20;;;;;;;10.93;91.13;100525.94;4951704;29;20375;-83
2023/05/15 02:07:13;;;;;;;10.18;7.65;;;;;;;10.89;91.82;100521.63;4952775;29;20529;-82
2023/05/15 02:09:41;;;;;;;8.27;7.50;;;;;;;10.90;91.91;100510.28;4948228;29;20039;-84
2023/05/15 02:12:09;;;;;;;7.95;7.22;;;;;;;10.88;91.69;100517.28;4956170;29;20050;-82
2023/05/15 02:14:40;;;;;;;8.75;7.93;;;;;;;10.88;92.33;100514.66;4949045;28;20526;-85
2023/05/15 02:17:07;;;;;;;7.90;7.20;;;;;;;10.86;91.88;100506.84;4932003;29;20102;-83
2023/05/15 02:19:35;;;;;;;7.47;6.78;;;;;;;10.85;91.91;100512.09;4945723;28;20052;-84
2023/05/15 02:22:02;;;;;;;8.38;7.65;;;;;;;10.81;92.10;100513.88;4952433;28;20053;-83
2023/05/15 02:24:28;;;;;;;7.85;7.15;;;;;;;10.76;92.14;100515.69;4931114;29;20142;-86
2023/05/15 02:27:28;;;;;;;8.48;7.70;;;;;;;10.72;92.96;100511.38;4953733;28;20128;-82
2023/05/15 02:30:22;;;;;;;7.45;6.68;;;;;;;10.66;92.86;100506.19;4961192;28;20158;-82
2023/05/15 02:33:33;;;;;;;8.60;7.68;;;;;;;10.64;93.03;100505.34;4944513;28;20058;-83
2023/05/15 02:36:06;;;;;;;7.47;6.78;;;;;;;10.67;93.09;100498.31;4952828;28;20440;-84
2023/05/15 02:38:41;;;;;;;8.95;8.05;;;;;;;10.71;92.71;100501.78;4951544;28;20052;-84
2023/05/15 02:41:08;;;;;;;8.25;7.45;;;;;;;10.75;92.40;100488.66;4953730;28;20197;-83
2023/05/15 02:43:40;;;;;;;7.78;6.95;;;;;;;10.79;92.01;100494.69;4950960;28;20490;-82
2023/05/15 02:46:07;;;;;;;6.80;6.20;;;;;;;10.78;91.65;100490.38;4953073;28;20141;-84
2023/05/15 02:48:38;;;;;;;8.40;7.50;;;;;;;10.79;91.35;100488.59;4950371;28;20050;-86
2023/05/15 02:51:08;;;;;;;8.05;7.38;;;;;;;10.81;91.92;100486.81;4940866;29;20139;-85
2023/05/15 02:53:40;;;;;;;8.20;7.28;;;;;;;10.87;92.07;100482.38;4963200;28;20471;-83
2023/05/15 02:56:07;;;;;;;8.98;8.07;;;;;;;10.89;91.70;100483.22;4955464;28;20050;-82
2023/05/15 02:58:36;;;;;;;8.50;7.60;;;;;;;10.93;91.22;100477.03;4947439;28;20053;-86
2023/05/15 03:01:03;;;;;;;10.15;8.10;;;;;;;10.97;91.34;100480.50;4952627;28;20058;-85
2023/05/15 03:03:30;;;;;;;8.60;7.80;;;;;;;10.98;91.19;100482.22;4949477;28;20047;-86
2023/05/15 03:05:56;;;;;;;9.70;8.73;;;;;;;10.98;91.00;100468.28;4952521;28;20485;-81
2023/05/15 03:08:23;;;;;;;9.70;7.97;;;;;;;10.98;91.32;100473.53;4942865;28;20049;-84
2023/05/15 03:10:49;;;;;;;7.95;7.13;;;;;;;10.97;91.17;100474.41;4954262;28;20458;-84
2023/05/15 03:13:18;;;;;;;8.65;7.60;;;;;;;10.95;91.03;100469.19;4949247;28;20493;-81
2023/05/15 03:15:48;;;;;;;8.07;7.18;;;;;;;10.95;91.41;100468.31;4951729;28;20039;-82
2023/05/15 03:18:14;;;;;;;7.93;7.13;;;;;;;10.93;91.06;100471.81;4951240;28;20054;-82
2023/05/15 03:20:42;;;;;;;9.18;7.60;;;;;;;10.93;91.02;100471.81;4936137;29;20576;-81
2023/05/15 03:23:08;;;;;;;7.80;7.00;;;;;;;10.92;90.98;100467.47;4950159;28;20047;-81
2023/05/15 03:25:38;;;;;;;8.77;7.90;;;;;;;10.92;91.04;100467.47;4944222;28;20387;-90
2023/05/15 03:28:07;;;;;;;10.90;9.27;;;;;;;10.88;91.45;100457.91;4957346;28;20054;-82
2023/05/15 03:30:33;;;;;;;8.55;7.57;;;;;;;10.91;91.31;100460.50;4933537;29;20052;-84
2023/05/15 03:33:02;;;;;;;8.95;7.93;;;;;;;10.91;91.36;100457.00;4956324;28;20051;-83
2023/05/15 03:35:31;;;;;;;7.82;7.10;;;;;;;10.93;91.50;100463.09;4948942;28;20070;-81
2023/05/15 03:37:57;;;;;;;9.02;8.23;;;;;;;10.95;91.52;100457.81;4934987;28;20054;-81
2023/05/15 03:40:26;;;;;;;7.97;7.18;;;;;;;10.96;91.21;100454.34;4952469;28;20047;-81
2023/05/15 03:42:52;;;;;;;8.07;7.28;;;;;;;11.02;91.74;100456.88;4933447;29;20043;-81
2023/05/15 03:45:19;;;;;;;10.23;9.20;;;;;;;11.08;91.14;100460.28;4944195;29;20134;-84
2023/05/15 03:47:48;;;;;;;8.27;7.40;;;;;;;11.16;91.11;100465.41;4947378;28;20058;-81
2023/05/15 03:50:18;;;;;;;11.98;8.35;;;;;;;11.22;90.78;100464.44;4948096;28;20475;-81
2023/05/15 03:52:44;;;;;;;8.02;7.32;;;;;;;11.29;90.30;100462.59;4929441;28;20077;-81
2023/05/15 03:55:11;;;;;;;7.93;7.13;;;;;;;11.35;90.15;100465.13;4945064;28;20121;-85
2023/05/15 03:57:39;;;;;;;9.23;7.80;;;;;;;11.39;89.74;100465.06;4948141;28;20050;-84
2023/05/15 04:00:08;;;;;;;8.35;7.53;;;;;;;11.45;89.41;100465.84;4929086;28;20374;-85
2023/05/15 04:02:38;;;;;;;8.85;7.85;;;;;;;11.49;89.76;100467.53;4943637;28;20515;-84
2023/05/15 04:05:08;;;;;;;7.72;6.97;;;;;;;11.52;89.60;100464.84;4947585;28;20113;-82
2023/05/15 04:07:37;;;;;;;11.32;8.57;;;;;;;11.51;89.82;100463.13;4925607;29;20094;-82
2023/05/15 04:10:06;;;;;;;8.98;8.02;;;;;;;11.49;89.85;100463.16;4941744;28;20047;-81
2023/05/15 04:12:35;;;;;;;9.35;7.57;;;;;;;11.51;89.26;100457.88;4936995;28;20074;-81
2023/05/15 04:15:22;;;;;;;10.05;9.05;;;;;;;11.57;89.71;100461.25;4945416;28;20051;-82
2023/05/15 04:17:51;;;;;;;8.32;7.50;;;;;;;11.59;88.85;100456.88;4951155;28;20042;-84
2023/05/15 04:20:21;;;;;;;8.40;7.40;;;;;;;11.59;89.33;100454.25;4952200;28;20062;-84
2023/05/15 04:22:50;;;;;;;7.82;7.00;;;;;;;11.59;89.36;100456.03;4961499;28;20091;-84
2023/05/15 04:25:17;;;;;;;9.85;7.22;;;;;;;11.62;89.30;100465.59;4945418;28;20047;-82
2023/05/15 04:27:48;;;;;;;9.55;8.68;;;;;;;11.62;89.29;100460.34;4949691;28;20042;-82
2023/05/15 04:30:16;;;;;;;8.85;7.88;;;;;;;11.65;89.05;100462.91;4958498;28;20050;-80
2023/05/15 04:32:43;;;;;;;11.45;8.68;;;;;;;11.68;89.08;100460.22;4937348;28;20043;-81
2023/05/15 04:35:12;;;;;;;8.70;7.70;;;;;;;11.73;89.08;100459.28;4946257;28;20043;-81
2023/05/15 04:37:44;;;;;;;9.88;8.95;;;;;;;11.80;88.61;100462.66;4948904;28;20035;-81
2023/05/15 04:40:15;;;;;;;9.77;8.70;;;;;;;11.81;88.18;100461.78;4932976;29;20082;-84
2023/05/15 04:42:46;;;;;;;11.05;8.38;;;;;;;11.86;88.12;100465.19;4947448;28;20044;-85
2023/05/15 04:45:16;;;;;;;9.10;8.20;;;;;;;11.92;87.64;100456.31;4945822;29;20035;-81
2023/05/15 04:47:42;;;;;;;9.85;8.50;;;;;;;11.93;87.41;100455.44;4950421;28;20042;-84
2023/05/15 04:50:09;;;;;;;10.18;9.07;;;;;;;11.96;86.98;100455.41;4954151;28;20050;-83
2023/05/15 04:52:36;;;;;;;13.25;9.38;;;;;;;11.99;86.80;100463.22;4952809;28;20046;-80
2023/05/15 04:55:03;;;;;;;9.27;8.07;;;;;;;12.03;86.50;100461.41;4955774;28;20055;-81
2023/05/15 04:57:30;;;;;;;9.55;8.38;;;;;;;12.08;86.23;100467.44;4937611;29;20142;-82
2023/05/15 04:59:56;;;;;;;8.77;7.80;;;;;;;12.14;85.92;100458.59;4952189;28;20055;-82
2023/05/15 05:02:26;;;;;;;9.90;8.90;;;;;;;12.17;85.51;100462.00;4954722;29;20049;-82
2023/05/15 05:04:53;;;;;;;10.05;9.05;;;;;;;12.21;85.46;100449.72;4935793;29;20039;-81
2023/05/15 05:07:19;;;;;;;10.00;8.98;;;;;;;12.27;85.36;100456.59;4941466;28;20048;-81
2023/05/15 05:09:51;;;;;;;10.10;9.10;;;;;;;12.32;85.05;100460.88;4950448;28;20043;-82
2023/05/15 05:12:17;;;;;;;7.88;7.15;;;;;;;12.37;85.09;100451.16;4948267;28;20113;-83
2023/05/15 05:14:46;;;;;;;10.15;9.02;;;;;;;12.44;84.83;100456.25;4951306;28;20040;-87
2023/05/15 05:17:13;;;;;;;9.55;8.65;;;;;;;12.52;84.28;100462.25;4951706;28;20536;-80
2023/05/15 05:19:40;;;;;;;10.43;8.93;;;;;;;12.55;84.53;100449.94;4949892;28;20517;-85
2023/05/15 05:22:07;;;;;;;9.82;8.82;;;;;;;12.54;84.72;100449.94;4947719;28;20553;-88
2023/05/15 05:24:36;;;;;;;11.27;8.77;;;;;;;12.57;84.20;100455.13;4950456;28;20067;-83
2023/05/15 05:27:03;;;;;;;11.50;9.07;;;;;;;12.57;84.42;100452.50;4946060;28;20080;-82
2023/05/15 05:29:32;;;;;;;11.05;9.50;;;;;;;12.58;84.50;100455.09;4947427;28;20646;-84
2023/05/15 05:32:00;;;;;;;11.15;9.68;;;;;;;12.65;84.39;100463.72;4955125;28;20058;-85
2023/05/15 05:34:26;;;;;;;12.52;9.20;;;;;;;12.69;83.71;100451.38;4953783;28;20050;-82
2023/05/15 05:36:52;;;;;;;13.20;9.85;;;;;;;12.71;83.32;100457.44;4953047;28;20617;-81
2023/05/15 05:39:19;;;;;;;10.65;9.20;;;;;;;12.75;83.27;100461.78;4950203;28;20459;-84
2023/05/15 05:41:48;;;;;;;11.57;10.23;;;;;;;12.76;83.03;100462.63;4939727;29;20050;-83
2023/05/15 05:44:14;;;;;;;10.85;8.50;;;;;;;12.79;82.46;100466.06;4933447;29;20047;-80
2023/05/15 05:46:41;;;;;;;10.90;9.25;;;;;;;12.89;82.61;100464.09;4954899;28;20044;-79
2023/05/15 05:49:08;;;;;;;10.43;8.77;;;;;;;13.03;82.38;100471.69;4952393;28;20054;-80
2023/05/15 05:51:38;;;;;;;12.20;9.10;;;;;;;13.12;82.06;100462.72;4958536;28;20054;-86
2023/05/15 05:54:07;;;;;;;11.23;9.45;;;;;;;13.18;82.06;100465.19;4950296;28;20051;-81
2023/05/15 05:56:35;;;;;;;9.30;8.38;;;;;;;13.26;81.74;100459.78;4931224;29;20706;-84
2023/05/15 05:59:02;;;;;;;11.02;8.95;;;;;;;13.29;81.89;100457.09;4936380;28;20135;-87
2023/05/15 06:01:28;;;;;;;10.80;9.75;;;;;;;13.39;81.21;100463.91;4924713;29;20051;-81
2023/05/15 06:03:56;;;;;;;8.82;8.05;;;;;;;13.46;80.59;100462.81;4927553;28;20125;-84
2023/05/15 06:06:22;;;;;;;12.90;10.80;;;;;;;13.52;79.99;100465.31;4945789;28;20072;-81
2023/05/15 06:08:49;;;;;;;11.75;9.98;;;;;;;13.51;79.50;100463.59;4946107;28;20046;-80
2023/05/15 06:11:20;;;;;;;9.57;8.68;;;;;;;13.55;79.75;100459.97;4948777;29;20043;-80
2023/05/15 06:13:47;;;;;;;11.35;10.13;;;;;;;13.64;79.73;100461.53;4944403;28;20047;-89
2023/05/15 06:16:13;;;;;;;14.35;10.43;;;;;;;13.70;79.34;100458.75;4949310;28;20090;-80
2023/05/15 06:18:40;;;;;;;10.18;9.18;;;;;;;13.79;79.27;100456.78;4955071;28;20398;-81
2023/05/15 06:21:09;;;;;;;11.65;10.35;;;;;;;13.80;79.08;100451.47;4950303;28;20042;-81
2023/05/15 06:23:36;;;;;;;11.50;10.40;;;;;;;13.81;78.61;100463.72;4945475;29;20466;-79
2023/05/15 06:26:04;;;;;;;11.32;10.20;;;;;;;13.81;78.97;100463.72;4943793;28;20035;-80
2023/05/15 06:28:31;;;;;;;13.35;9.77;;;;;;;13.82;79.25;100467.22;4933817;29;20051;-86
2023/05/15 06:30:59;;;;;;;11.35;10.25;;;;;;;13.89;78.85;100460.91;4950732;28;20070;-80
2023/05/15 06:33:30;;;;;;;12.45;9.57;;;;;;;13.92;78.60;100458.19;4947152;28;20047;-80
2023/05/15 06:35:56;;;;;;;12.23;9.90;;;;;;;14.03;77.99;100457.91;4950106;28;20031;-80
2023/05/15 06:38:22;;;;;;;12.63;9.60;;;;;;;14.12;77.29;100454.16;4931985;29;20050;-83
2023/05/15 06:40:49;;;;;;;11.50;10.18;;;;;;;14.23;77.23;100447.69;4934637;28;20058;-80
2023/05/15 06:43:19;;;;;;;11.88;8.98;;;;;;;14.38;76.20;100451.69;4949109;28;20353;-81
2023/05/15 06:45:49;;;;;;;11.85;9.60;;;;;;;14.51;75.65;100446.06;4944270;28;20047;-83
2023/05/15 06:48:16;;;;;;;10.32;9.43;;;;;;;14.61;75.38;100449.31;4945891;29;20470;-82
2023/05/15 06:50:42;;;;;;;10.50;9.48;;;;;;;14.74;74.83;100455.13;4942764;28;20103;-83
2023/05/15 06:53:11;;;;;;;11.13;9.80;;;;;;;14.82;73.90;100455.75;4941863;28;20058;-82
2023/05/15 06:55:37;;;;;;;11.93;10.27;;;;;;;14.88;73.62;100455.56;4926664;29;20047;-82
2023/05/15 06:58:04;;;;;;;11.55;10.35;;;;;;;14.93;73.20;100450.13;4944472;28;20050;-84
2023/05/15 07:00:31;;;;;;;11.45;10.43;;;;;;;14.90;73.54;100451.13;4946852;28;20102;-86
2023/05/15 07:02:57;;;;;;;11.35;10.00;;;;;;;14.97;72.59;100446.53;4943821;28;20043;-80
2023/05/15 07:05:25;;;;;;;12.68;10.45;;;;;;;14.93;73.20;100444.88;4948462;28;20047;-81
2023/05/15 07:07:52;;;;;;;11.43;10.25;;;;;;;15.10;72.24;100450.50;4943884;28;20043;-79
2023/05/15 07:10:19;;;;;;;11.02;10.05;;;;;;;15.16;71.06;100437.13;4933872;29;20047;-80
2023/05/15 07:12:45;;;;;;;13.90;9.52;;;;;;;15.24;71.04;100439.53;4931952;29;20058;-80
2023/05/15 07:15:12;;;;;;;11.95;10.38;;;;;;;15.34;69.65;100440.97;4944497;28;20050;-80
2023/05/15 07:17:38;;;;;;;10.35;9.30;;;;;;;15.46;69.30;100439.69;4947243;28;20051;-81
2023/05/15 07:20:08;;;;;;;9.98;9.00;;;;;;;15.57;68.80;100443.75;4950020;28;20110;-85
2023/05/15 07:22:36;;;;;;;11.45;9.07;;;;;;;15.61;68.38;100442.75;4948192;28;20055;-82
2023/05/15 07:25:06;;;;;;;10.40;9.40;;;;;;;15.79;68.11;100449.19;4948871;28;20065;-82
2023/05/15 07:27:32;;;;;;;11.13;9.07;;;;;;;15.93;67.95;100443.44;4947485;28;20047;-80
2023/05/15 07:29:59;;;;;;;11.60;9.00;;;;;;;16.14;66.80;100439.19;4945440;28;20055;-79
2023/05/15 07:32:29;;;;;;;10.82;9.82;;;;;;;16.28;65.41;100436.94;4943960;28;20062;-83
2023/05/15 07:34:58;;;;;;;10.77;8.35;;;;;;;16.40;65.36;100440.91;4948243;28;20099;-83
2023/05/15 07:37:25;;;;;;;10.90;9.20;;;;;;;16.53;65.30;100436.00;4942822;28;20050;-82
2023/05/15 07:39:54;;;;;;;11.30;9.45;;;;;;;16.63;64.90;100437.38;4955470;28;20051;-82
2023/05/15 07:42:21;;;;;;;11.00;9.48;;;;;;;16.73;64.33;100443.19;4918568;29;20069;-80
2023/05/15 07:44:48;;;;;;;10.52;9.52;;;;;;;16.63;64.07;100439.19;4947091;28;20063;-82
2023/05/15 07:47:15;;;;;;;9.02;8.18;;;;;;;16.68;64.37;100440.72;4937543;28;20035;-81
2023/05/15 07:49:41;;;;;;;11.98;10.00;;;;;;;16.74;63.12;100433.47;4951598;28;20043;-79
2023/05/15 07:52:08;;;;;;;12.38;8.98;;;;;;;16.62;64.39;100430.41;4932724;28;20039;-80
2023/05/15 07:54:34;;;;;;;10.60;9.70;;;;;;;16.72;63.72;100430.06;4944670;29;20478;-81
2023/05/15 07:57:01;;;;;;;8.82;8.02;;;;;;;16.73;63.06;100426.50;4947627;28;20043;-80
2023/05/15 07:59:27;;;;;;;10.07;8.20;;;;;;;16.96;62.84;100421.19;4931594;29;20126;-81
2023/05/15 08:01:55;;;;;;;12.20;8.73;;;;;;;17.23;61.98;100418.38;4941033;28;20455;-81
2023/05/15 08:04:22;;;;;;;10.43;9.43;;;;;;;17.65;60.37;100427.25;4933974;29;20107;-81
2023/05/15 08:06:48;;;;;;;10.27;9.25;;;;;;;17.81;58.52;100425.69;4947378;28;20051;-80
2023/05/15 08:09:15;;;;;;;11.00;9.77;;;;;;;17.93;58.82;100423.47;4945140;28;20047;-84
2023/05/15 08:11:41;;;;;;;10.73;9.73;;;;;;;18.10;57.30;100420.06;4950110;28;20043;-79
2023/05/15 08:14:07;;;;;;;11.00;9.48;;;;;;;18.22;56.56;100411.56;4950648;28;20047;-80
2023/05/15 08:16:34;;;;;;;9.70;8.55;;;;;;;18.22;57.33;100410.72;4949764;28;20040;-80
2023/05/15 08:19:03;;;;;;;10.55;9.48;;;;;;;18.83;55.20;100412.34;4948889;28;20046;-80
2023/05/15 08:21:33;;;;;;;10.45;9.32;;;;;;;19.34;53.81;100409.91;4948284;28;20039;-80
2023/05/15 08:24:00;;;;;;;13.40;8.35;;;;;;;19.68;52.59;100413.53;4946017;28;20450;-81
2023/05/15 08:26:27;;;;;;;10.20;9.20;;;;;;;20.00;51.74;100408.41;4949334;28;20047;-82
2023/05/15 08:28:53;;;;;;;12.02;9.15;;;;;;;20.25;51.40;100407.94;4947615;28;20063;-86
2023/05/15 08:31:19;;;;;;;9.75;7.40;;;;;;;20.37;50.92;100402.94;4945182;28;20525;-84
2023/05/15 08:33:46;;;;;;;7.85;7.05;;;;;;;20.46;50.45;100395.28;4944726;28;20058;-82
2023/05/15 08:36:13;;;;;;;8.30;7.50;;;;;;;20.72;49.61;100400.16;4946122;28;20490;-82
2023/05/15 08:38:39;;;;;;;8.10;7.32;;;;;;;21.30;47.92;100390.66;4946307;28;20043;-79
2023/05/15 08:41:21;;;;;;;8.02;6.85;;;;;;;22.16;46.28;100386.50;4947016;28;20042;-88
2023/05/15 08:43:51;;;;;;;12.18;9.65;;;;;;;22.91;44.07;100391.59;4949966;28;20130;-81
2023/05/15 08:46:18;;;;;;;9.02;6.95;;;;;;;23.36;42.36;100388.66;4949263;28;20122;-82
2023/05/15 08:48:44;;;;;;;6.82;6.18;;;;;;;23.95;40.65;100383.75;4952929;28;20039;-81
2023/05/15 08:51:12;;;;;;;10.23;6.20;;;;;;;24.43;39.50;100383.09;4951449;28;20509;-82
2023/05/15 08:53:39;;;;;;;7.63;6.93;;;;;;;25.01;39.54;100373.63;4952367;28;20046;-82
2023/05/15 08:56:06;;;;;;;7.13;6.38;;;;;;;25.37;38.74;100380.75;4953578;28;20070;-88
2023/05/15 08:58:32;;;;;;;6.28;5.63;;;;;;;25.42;38.43;100375.03;4950877;28;20109;-82
2023/05/15 09:00:59;;;;;;;6.10;5.53;;;;;;;24.89;38.06;100378.91;4932444;28;20048;-80
2023/05/15 09:03:26;;;;;;;8.23;5.50;;;;;;;24.65;38.62;100386.06;4945999;28;20047;-83
2023/05/15 09:05:53;;;;;;;11.80;5.75;;;;;;;25.04;37.21;100379.59;4953476;28;20054;-80
2023/05/15 09:08:22;;;;;;;5.70;5.20;;;;;;;25.32;36.15;100376.66;4953932;28;20050;-83
2023/05/15 09:10:49;;;;;;;6.50;4.78;;;;;;;25.35;36.19;100373.81;4949790;28;20062;-80
2023/05/15 09:13:17;;;;;;;8.75;5.55;;;;;;;26.00;35.84;100369.69;4948079;28;20697;-88
2023/05/15 09:15:46;;;;;;;6.13;4.10;;;;;;;26.59;33.92;100367.72;4927293;29;20055;-81
2023/05/15 09:18:15;;;;;;;7.65;4.50;;;;;;;27.04;32.79;100362.28;4953080;29;20046;-81
2023/05/15 09:20:41;;;;;;;6.57;4.63;;;;;;;27.61;32.62;100370.09;4951218;29;20098;-81
2023/05/15 09:23:25;;;;;;;5.32;4.78;;;;;;;28.21;30.92;100364.06;4940062;29;20039;-81
2023/05/15 09:25:55;;;;;;;4.95;4.53;;;;;;;28.67;30.64;100370.78;4953471;29;20051;-83
2023/05/15 09:28:32;;;;;;;6.78;5.00;;;;;;;27.73;31.39;100371.75;4951179;29;20458;-81
2023/05/15 09:31:04;;;;;;;4.70;4.28;;;;;;;27.69;31.63;100372.13;4947015;28;20107;-85
2023/05/15 09:33:36;;;;;;;6.88;4.13;;;;;;;28.23;31.28;100368.31;4952886;29;20402;-86
2023/05/15 09:36:06;;;;;;;7.57;5.00;;;;;;;28.64;30.05;100367.47;4925592;29;20094;-84
2023/05/15 09:38:35;;;;;;;4.25;3.85;;;;;;;29.29;29.54;100362.47;4940439;29;20330;-83
2023/05/15 09:41:04;;;;;;;8.20;4.75;;;;;;;29.40;29.21;100368.72;4944069;29;20051;-85
2023/05/15 09:43:36;;;;;;;4.35;4.05;;;;;;;28.54;29.16;100362.91;4948896;29;20051;-83
2023/05/15 09:46:05;;;;;;;3.78;3.47;;;;;;;27.98;30.68;100369.63;4948051;29;20347;-82
2023/05/15 09:48:32;;;;;;;5.47;4.57;;;;;;;27.89;31.13;100360.50;4945898;29;20043;-83
2023/05/15 09:50:59;;;;;;;5.70;4.80;;;;;;;27.92;31.38;100366.59;4947874;29;20049;-81
2023/05/15 09:53:25;;;;;;;9.77;4.50;;;;;;;27.84;30.95;100369.97;4933070;29;20059;-82
2023/05/15 09:55:53;;;;;;;4.90;4.30;;;;;;;27.47;31.46;100363.22;4936634;29;20425;-82
2023/05/15 09:58:20;;;;;;;3.78;3.47;;;;;;;27.01;31.96;100369.72;4953006;29;20127;-82
2023/05/15 10:00:47;;;;;;;7.90;4.25;;;;;;;27.40;30.96;100362.91;4954505;29;20046;-81
2023/05/15 10:03:14;;;;;;;7.63;3.65;;;;;;;29.19;29.16;100353.50;4942978;29;20058;-81
2023/05/15 10:05:41;;;;;;;4.15;3.20;;;;;;;30.29;27.55;100345.94;4949193;29;20487;-81
2023/05/15 10:08:08;;;;;;;4.57;3.28;;;;;;;31.16;26.72;100349.94;4947489;29;20062;-82
2023/05/15 10:10:34;;;;;;;3.90;3.60;;;;;;;32.22;25.50;100347.31;4950681;29;20393;-85
2023/05/15 10:13:03;;;;;;;4.68;3.15;;;;;;;33.11;24.79;100345.00;4949068;29;20043;-82
2023/05/15 10:15:30;;;;;;;3.72;3.33;;;;;;;33.61;24.00;100343.13;4936664;29;20086;-80
2023/05/15 10:17:57;;;;;;;5.85;3.67;;;;;;;33.88;22.85;100341.91;4952234;29;20050;-84
2023/05/15 10:20:25;;;;;;;4.28;3.92;;;;;;;34.45;22.75;100346.28;4944804;29;20055;-81
2023/05/15 10:22:57;;;;;;;3.92;3.58;;;;;;;34.56;22.12;100346.91;4946982;28;20051;-81
2023/05/15 10:25:50;;;;;;;4.30;3.55;;;;;;;34.90;21.61;100338.41;4929392;28;20048;-83
2023/05/15 10:28:18;;;;;;;4.72;3.78;;;;;;;35.04;22.30;100339.47;4928925;29;20051;-81
2023/05/15 10:30:46;;;;;;;7.13;4.72;;;;;;;35.36;22.30;100328.50;4951797;29;20046;-80
2023/05/15 10:33:13;;;;;;;5.90;4.28;;;;;;;35.09;22.64;100336.22;4967141;28;20043;-81
2023/05/15 10:35:41;;;;;;;4.18;3.83;;;;;;;35.01;22.32;100322.69;4947517;29;20047;-81
2023/05/15 10:38:09;;;;;;;4.90;4.00;;;;;;;34.69;22.25;100319.97;4945136;29;20090;-83
2023/05/15 10:40:38;;;;;;;5.10;4.35;;;;;;;34.91;20.73;100320.19;4946285;28;20051;-81
2023/05/15 10:43:07;;;;;;;4.13;3.67;;;;;;;34.67;21.65;100322.03;4932849;29;20383;-81
2023/05/15 10:45:35;;;;;;;8.35;4.10;;;;;;;34.32;22.16;100321.56;4944597;29;20434;-81
2023/05/15 10:48:02;;;;;;;5.47;3.75;;;;;;;34.25;21.68;100317.81;4946443;29;20493;-82
2023/05/15 10:50:29;;;;;;;4.47;3.55;;;;;;;34.64;21.14;100314.25;4949254;29;20046;-87
2023/05/15 10:52:55;;;;;;;4.07;3.22;;;;;;;34.99;20.66;100306.53;4952263;29;20043;-83
2023/05/15 10:55:23;;;;;;;5.95;4.05;;;;;;;35.47;20.78;100305.47;4948417;29;20062;-81
2023/05/15 10:57:50;;;;;;;3.90;3.50;;;;;;;35.51;20.34;100310.34;4934464;29;20054;-81
2023/05/15 11:00:23;;;;;;;4.28;3.88;;;;;;;34.98;19.98;100309.44;4947585;29;20421;-83
2023/05/15 11:02:52;;;;;;;5.20;4.18;;;;;;;35.07;20.24;100306.47;4952591;28;20039;-81
2023/05/15 11:05:19;;;;;;;4.88;3.60;;;;;;;35.56;20.19;100307.06;4954451;29;20070;-83
2023/05/15 11:08:17;;;;;;;5.80;3.83;;;;;;;35.30;19.69;100288.44;4950147;29;20047;-80
2023/05/15 11:10:43;;;;;;;7.05;3.40;;;;;;;33.50;21.68;100300.91;4944230;29;20391;-81
2023/05/15 11:13:11;;;;;;;3.95;3.65;;;;;;;33.30;21.61;100300.44;4945522;29;20044;-80
2023/05/15 11:15:44;;;;;;;4.90;3.63;;;;;;;34.50;19.59;100301.41;4954213;28;20059;-82
2023/05/15 11:18:11;;;;;;;4.57;3.60;;;;;;;35.67;19.86;100286.69;4923960;29;20043;-82
2023/05/15 11:20:40;;;;;;;5.22;3.47;;;;;;;36.99;18.67;100287.66;4947579;29;20134;-81
2023/05/15 11:23:07;;;;;;;3.53;3.22;;;;;;;36.99;18.34;100287.66;4929149;29;20058;-82
2023/05/15 11:25:36;;;;;;;3.20;2.83;;;;;;;37.12;18.44;100282.31;4947360;28;20043;-85
2023/05/15 11:28:06;;;;;;;15.38;4.60;;;;;;;37.39;18.42;100277.06;4951656;29;20263;-84
2023/05/15 11:30:39;;;;;;;6.17;3.53;;;;;;;37.81;17.33;100272.53;4951678;28;20041;-85